createdAt,value
2019-04-27T09:44:26.000Z,285.27
2019-04-27T09:45:48.000Z,285.27
2019-04-27T09:47:48.000Z,285.15
2019-04-27T09:49:10.000Z,285.09
2019-04-27T09:51:10.000Z,284.9
2019-04-27T09:52:32.000Z,284.96
2019-04-27T09:54:33.000Z,284.77
2019-04-27T09:55:56.000Z,284.77
2019-04-27T09:57:56.000Z,284.9
2019-04-27T09:59:19.000Z,284.96
2019-04-27T10:01:19.000Z,284.65
2019-04-27T10:02:41.000Z,284.65
2019-04-27T10:04:41.000Z,284.71
2019-04-27T10:06:03.000Z,284.77
2019-04-27T10:08:03.000Z,284.96
2019-04-27T10:09:26.000Z,284.96
2019-04-27T10:11:27.000Z,285.02
2019-04-27T10:12:49.000Z,284.96
2019-04-27T10:14:49.000Z,284.84
2019-04-27T10:16:11.000Z,284.59
2019-04-27T10:18:11.000Z,284.65
2019-04-27T10:19:33.000Z,284.71
2019-04-27T10:21:34.000Z,284.71
2019-04-27T10:22:56.000Z,284.71
2019-04-27T10:24:56.000Z,284.59
2019-04-27T10:26:18.000Z,284.71
2019-04-27T10:28:18.000Z,284.65
2019-04-27T10:29:40.000Z,284.71
2019-04-27T10:31:41.000Z,284.77
2019-04-27T10:33:03.000Z,284.77
2019-04-27T10:35:06.000Z,285.02
2019-04-27T10:36:28.000Z,285.09
2019-04-27T10:38:28.000Z,285.09
2019-04-27T10:39:50.000Z,285.02
2019-04-27T10:41:50.000Z,285.09
2019-04-27T10:43:12.000Z,285.27
2019-04-27T10:45:13.000Z,285.21
2019-04-27T10:46:35.000Z,285.21
2019-04-27T10:48:35.000Z,285.15
2019-04-27T10:49:57.000Z,285.02
2019-04-27T10:51:57.000Z,284.9
2019-04-27T10:53:19.000Z,284.96
2019-04-27T10:55:19.000Z,284.77
2019-04-27T10:56:41.000Z,284.77
2019-04-27T10:58:41.000Z,284.71
2019-04-27T11:00:03.000Z,284.77
2019-04-27T11:02:04.000Z,284.77
2019-04-27T11:03:26.000Z,284.71
2019-04-27T11:05:26.000Z,284.71
2019-04-27T11:06:51.000Z,284.59
2019-04-27T11:08:51.000Z,284.59
2019-04-27T11:10:13.000Z,284.84
2019-04-27T11:12:14.000Z,284.96
2019-04-27T11:13:36.000Z,284.71
2019-04-27T11:15:36.000Z,284.71
2019-04-27T11:16:58.000Z,284.84
2019-04-27T11:18:58.000Z,284.84
2019-04-27T11:20:20.000Z,284.71
2019-04-27T11:22:20.000Z,284.77
2019-04-27T11:23:42.000Z,284.84
2019-04-27T11:25:44.000Z,284.77
2019-04-27T11:27:06.000Z,284.77
2019-04-27T11:29:06.000Z,284.84
2019-04-27T11:30:29.000Z,284.77
2019-04-27T11:32:29.000Z,284.52
2019-04-27T11:33:51.000Z,284.52
2019-04-27T11:35:51.000Z,284.59
2019-04-27T11:37:13.000Z,284.71
2019-04-27T11:39:13.000Z,284.71
2019-04-27T11:40:37.000Z,284.9
2019-04-27T11:42:37.000Z,285.09
2019-04-27T11:43:59.000Z,284.9
2019-04-27T11:45:59.000Z,284.9
2019-04-27T11:47:21.000Z,285.09
2019-04-27T11:49:21.000Z,285.21
2019-04-27T11:50:45.000Z,285.21
2019-04-27T11:52:45.000Z,285.27
2019-04-27T11:54:07.000Z,285.27
2019-04-27T11:56:07.000Z,285.34
2019-04-27T11:57:29.000Z,285.34
2019-04-27T11:59:29.000Z,285.09
2019-04-27T12:00:51.000Z,285.27
2019-04-27T12:02:51.000Z,285.46
2019-04-27T12:04:13.000Z,285.27
2019-04-27T12:06:13.000Z,285.46
2019-04-27T12:07:35.000Z,285.59
2019-04-27T12:09:35.000Z,285.52
2019-04-27T12:10:57.000Z,285.59
2019-04-27T12:12:57.000Z,285.52
2019-04-27T12:14:21.000Z,285.15
2019-04-27T12:16:21.000Z,285.09
2019-04-27T12:17:43.000Z,284.96
2019-04-27T12:19:44.000Z,285.09
2019-04-27T12:21:06.000Z,285.09
2019-04-27T12:23:06.000Z,285.02
2019-04-27T12:24:29.000Z,284.84
2019-04-27T12:26:29.000Z,284.77
2019-04-27T12:27:52.000Z,284.59
2019-04-27T12:29:52.000Z,284.71
2019-04-27T12:31:15.000Z,284.46
2019-04-27T12:33:15.000Z,284.46
2019-04-27T12:34:37.000Z,284.52
2019-04-27T12:36:37.000Z,284.4
2019-04-27T12:37:59.000Z,284.46
2019-04-27T12:39:59.000Z,284.46
2019-04-27T12:41:21.000Z,284.59
2019-04-27T12:43:21.000Z,284.71
2019-04-27T12:44:43.000Z,284.52
2019-04-27T12:46:43.000Z,284.21
2019-04-27T12:48:05.000Z,284.21
2019-04-27T12:50:05.000Z,284.27
2019-04-27T12:51:27.000Z,284.34
2019-04-27T12:53:27.000Z,284.4
2019-04-27T12:54:49.000Z,284.59
2019-04-27T12:56:49.000Z,284.4
2019-04-27T12:58:11.000Z,284.27
2019-04-27T13:00:12.000Z,284.15
2019-04-27T13:01:35.000Z,284.27
2019-04-27T13:03:35.000Z,284.34
2019-04-27T13:04:57.000Z,284.34
2019-04-27T13:06:57.000Z,284.34
2019-04-27T13:08:19.000Z,284.46
2019-04-27T13:10:19.000Z,284.4
2019-04-27T13:11:41.000Z,284.34
2019-04-27T13:13:43.000Z,284.09
2019-04-27T13:15:05.000Z,284.09
2019-04-27T13:17:05.000Z,284.21
2019-04-27T13:18:27.000Z,284.15
2019-04-27T13:20:27.000Z,284.09
2019-04-27T13:21:49.000Z,283.96
2019-04-27T13:23:49.000Z,283.96
2019-04-27T13:25:24.000Z,284.09
2019-04-27T13:27:24.000Z,284.09
2019-04-27T13:28:46.000Z,284.09
2019-04-27T13:30:46.000Z,283.84
2019-04-27T13:32:09.000Z,283.96
2019-04-27T13:34:09.000Z,284.02
2019-04-27T13:35:31.000Z,284.15
2019-04-27T13:37:32.000Z,284.21
2019-04-27T13:38:58.000Z,284.4
2019-04-27T13:40:58.000Z,284.52
2019-04-27T13:42:20.000Z,284.65
2019-04-27T13:44:20.000Z,284.77
2019-04-27T13:45:42.000Z,284.77
2019-04-27T13:47:44.000Z,284.84
2019-04-27T13:49:06.000Z,284.71
2019-04-27T13:51:06.000Z,284.59
2019-04-27T13:52:28.000Z,284.59
2019-04-27T13:54:28.000Z,284.4
2019-04-27T13:55:53.000Z,284.34
2019-04-27T13:57:54.000Z,284.27
2019-04-27T13:59:16.000Z,284.27
2019-04-27T14:01:16.000Z,284.4
2019-04-27T14:02:38.000Z,284.46
2019-04-27T14:04:38.000Z,284.46
2019-04-27T14:06:00.000Z,284.52
2019-04-27T14:08:11.000Z,284.84
2019-04-27T14:09:33.000Z,284.9
2019-04-27T14:11:33.000Z,284.71
2019-04-27T14:12:55.000Z,284.59
2019-04-27T14:14:56.000Z,284.52
2019-04-27T14:16:19.000Z,284.59
2019-04-27T14:18:18.000Z,284.52
2019-04-27T14:19:40.000Z,284.46
2019-04-27T14:21:40.000Z,284.59
2019-04-27T14:23:02.000Z,284.59
2019-04-27T14:25:02.000Z,284.46
2019-04-27T14:26:24.000Z,284.15
2019-04-27T14:28:26.000Z,283.96
2019-04-27T14:29:48.000Z,283.9
2019-04-27T14:31:51.000Z,283.52
2019-04-27T14:33:13.000Z,282.77
2019-04-27T14:35:13.000Z,281.21
2019-04-27T14:36:35.000Z,281.27
2019-04-27T14:38:38.000Z,280.9
2019-04-27T14:40:00.000Z,281.02
2019-04-27T14:42:00.000Z,280.96
2019-04-27T14:43:22.000Z,280.9
2019-04-27T14:45:22.000Z,280.65
2019-04-27T14:46:44.000Z,280.84
2019-04-27T14:48:46.000Z,280.96
2019-04-27T14:50:08.000Z,280.96
2019-04-27T14:52:08.000Z,280.84
2019-04-27T14:53:30.000Z,280.77
2019-04-27T14:55:30.000Z,280.77
2019-04-27T14:56:52.000Z,280.9
2019-04-27T14:58:52.000Z,280.71
2019-04-27T15:00:15.000Z,280.59
2019-04-27T15:02:17.000Z,280.52
2019-04-27T15:03:39.000Z,280.65
2019-04-27T15:05:38.000Z,280.77
2019-04-27T15:07:00.000Z,280.59
2019-04-27T15:09:03.000Z,280.46
2019-04-27T15:10:25.000Z,280.34
2019-04-27T15:12:32.000Z,280.15
2019-04-27T15:13:54.000Z,280.27
2019-04-27T15:15:57.000Z,280.27
2019-04-27T15:17:26.000Z,280.21
2019-04-27T15:19:27.000Z,280.09
2019-04-27T15:20:50.000Z,280.09
2019-04-27T15:22:50.000Z,279.96
2019-04-27T15:24:17.000Z,280.09
2019-04-27T15:26:18.000Z,280.15
2019-04-27T15:27:45.000Z,280.09
2019-04-27T15:29:45.000Z,280.09
2019-04-27T15:31:07.000Z,280.34
2019-04-27T15:33:21.000Z,280.15
2019-04-27T15:34:43.000Z,280.27
2019-04-27T15:36:43.000Z,280.15
2019-04-27T15:38:05.000Z,280.59
2019-04-27T15:40:11.000Z,280.71
2019-04-27T15:41:33.000Z,280.71
2019-04-27T15:43:33.000Z,280.59
2019-04-27T15:44:55.000Z,280.46
2019-04-27T15:46:56.000Z,280.59
2019-04-27T15:48:18.000Z,280.77
2019-04-27T15:50:18.000Z,280.9
2019-04-27T15:51:47.000Z,281.02
2019-04-27T15:53:52.000Z,281.21
2019-04-27T15:55:14.000Z,281.4
2019-04-27T15:57:30.000Z,281.52
2019-04-27T15:58:52.000Z,281.52
2019-04-27T16:00:57.000Z,281.21
2019-04-27T16:02:24.000Z,281.15
2019-04-27T16:04:24.000Z,281.15
2019-04-27T16:05:46.000Z,281.02
2019-04-27T16:07:46.000Z,280.9
2019-04-27T16:09:08.000Z,281.02
2019-04-27T16:12:35.000Z,281.21
2019-04-27T16:14:45.000Z,281.46
2019-04-27T16:16:07.000Z,281.71
2019-04-27T16:18:07.000Z,281.84
2019-04-27T16:19:29.000Z,281.9
2019-04-27T16:21:29.000Z,281.9
2019-04-27T16:22:51.000Z,282.09
2019-04-27T19:18:06.000Z,280.52
2019-04-27T19:21:55.000Z,280.34
2019-04-27T19:23:18.000Z,280.4
2019-04-27T19:25:20.000Z,280.34
2019-04-27T19:26:42.000Z,280.27
2019-04-27T19:28:43.000Z,280.27
2019-04-27T19:30:05.000Z,280.15
2019-04-27T19:32:07.000Z,280.21
2019-04-27T19:33:29.000Z,280.27
2019-04-27T19:35:30.000Z,280.21
2019-04-27T19:36:52.000Z,280.21
2019-04-27T19:38:53.000Z,280.21
2019-04-27T19:40:15.000Z,280.15
2019-04-27T19:42:17.000Z,280.02
2019-04-27T19:43:41.000Z,280.09
2019-04-27T19:45:43.000Z,279.96
2019-04-27T19:47:05.000Z,279.96
2019-04-27T19:49:06.000Z,279.9
2019-04-27T19:50:28.000Z,279.9
2019-04-27T19:52:29.000Z,279.84
2019-04-27T19:53:52.000Z,279.84
2019-04-27T19:55:53.000Z,279.84
2019-04-27T19:57:15.000Z,279.84
2019-04-27T19:59:36.000Z,279.77
2019-04-27T20:11:06.000Z,279.65
2019-04-27T20:12:28.000Z,279.65
2019-04-27T20:13:53.000Z,279.65
2019-04-27T20:15:15.000Z,279.65
2019-04-27T20:17:16.000Z,279.65
2019-04-27T20:18:38.000Z,279.65
2019-04-27T20:20:44.000Z,279.59
2019-04-27T20:22:06.000Z,279.59
2019-04-27T20:45:29.000Z,279.27
2019-04-27T20:46:40.000Z,279.27
2019-04-27T20:48:03.000Z,279.27
2019-04-27T20:50:04.000Z,279.27
2019-04-27T20:51:26.000Z,279.27
2019-04-27T20:53:26.000Z,279.27
2019-04-27T20:55:18.000Z,279.27
2019-04-27T20:57:21.000Z,279.27
2019-04-27T20:58:43.000Z,279.27
2019-04-27T21:00:44.000Z,279.27
2019-04-27T21:02:06.000Z,279.27
2019-04-27T21:04:07.000Z,279.27
2019-04-27T21:05:30.000Z,279.21
2019-04-27T21:07:32.000Z,279.15
2019-04-27T21:08:54.000Z,279.15
2019-04-27T21:10:55.000Z,279.15
2019-04-27T21:12:17.000Z,279.21
2019-04-27T21:14:22.000Z,279.21
2019-04-27T21:15:44.000Z,279.21
2019-04-27T21:17:45.000Z,279.27
2019-04-27T21:19:07.000Z,279.27
2019-04-27T21:21:10.000Z,279.27
2019-04-27T21:28:46.000Z,279.34
2019-04-27T21:30:08.000Z,279.34
2019-04-27T21:32:10.000Z,279.34
2019-04-27T21:33:33.000Z,279.34
2019-04-27T21:35:34.000Z,279.34
2019-04-27T21:36:56.000Z,279.34
2019-04-27T21:38:58.000Z,279.34
2019-04-27T21:40:21.000Z,279.4
2019-04-27T21:42:22.000Z,279.34
2019-04-27T21:43:44.000Z,279.34
2019-04-27T21:45:47.000Z,279.27
2019-04-27T21:47:11.000Z,279.27
2019-04-27T21:49:11.000Z,279.27
2019-04-27T21:50:33.000Z,279.27
2019-04-27T21:52:34.000Z,279.27
2019-04-27T21:53:56.000Z,279.34
2019-04-27T21:55:57.000Z,279.34
2019-04-27T21:57:21.000Z,279.34
2019-04-27T21:59:22.000Z,279.27
2019-04-27T22:00:44.000Z,279.27
2019-04-27T22:02:47.000Z,279.27
2019-04-27T22:04:12.000Z,279.27
2019-04-27T22:06:12.000Z,279.27
2019-04-27T22:07:34.000Z,279.27
2019-04-27T22:09:36.000Z,279.21
2019-04-27T22:10:58.000Z,279.27
2019-04-27T22:13:01.000Z,279.21
2019-04-27T22:14:23.000Z,279.27
2019-04-27T22:16:24.000Z,279.27
2019-04-27T22:17:47.000Z,279.27
2019-04-27T22:19:48.000Z,279.27
2019-04-27T22:21:12.000Z,279.27
2019-04-27T22:23:13.000Z,279.27
2019-04-27T22:24:35.000Z,279.27
2019-04-27T22:26:36.000Z,279.27
2019-04-27T22:27:58.000Z,279.27
2019-04-27T22:30:01.000Z,279.27
2019-04-27T22:31:23.000Z,279.27
2019-04-27T22:33:25.000Z,279.21
2019-04-27T22:34:49.000Z,279.27
2019-04-27T22:36:50.000Z,279.21
2019-04-27T22:38:15.000Z,279.27
2019-04-27T22:40:17.000Z,279.21
2019-04-27T22:41:42.000Z,279.21
2019-04-27T22:43:44.000Z,279.21
2019-04-27T22:45:06.000Z,279.21
2019-04-27T22:47:08.000Z,279.21
2019-04-27T22:48:33.000Z,279.21
2019-04-27T22:50:35.000Z,279.21
2019-04-27T22:51:57.000Z,279.21
2019-04-27T22:54:01.000Z,279.21
2019-04-27T22:55:25.000Z,279.21
2019-04-27T22:57:26.000Z,279.21
2019-04-27T22:58:54.000Z,279.21
2019-04-27T23:01:00.000Z,279.21
2019-04-27T23:02:24.000Z,279.21
2019-04-27T23:04:29.000Z,279.21
2019-04-27T23:05:56.000Z,279.21
2019-04-27T23:08:04.000Z,279.21
2019-04-27T23:09:27.000Z,279.21
2019-04-27T23:11:30.000Z,279.27
2019-04-27T23:12:53.000Z,279.27
2019-04-27T23:14:58.000Z,279.27
2019-04-27T23:16:23.000Z,279.21
2019-04-27T23:18:25.000Z,279.21
2019-04-27T23:19:47.000Z,279.21
2019-04-27T23:21:50.000Z,279.21
2019-04-27T23:23:16.000Z,279.15
2019-04-27T23:25:21.000Z,279.21
2019-04-27T23:26:44.000Z,279.21
2019-04-27T23:28:47.000Z,279.15
2019-04-27T23:30:09.000Z,279.21
2019-04-27T23:32:12.000Z,279.21
2019-04-27T23:33:35.000Z,279.21
2019-04-27T23:35:40.000Z,279.21
2019-04-27T23:37:06.000Z,279.15
2019-04-27T23:39:08.000Z,279.15
2019-04-27T23:40:34.000Z,279.09
2019-04-27T23:42:40.000Z,279.09
2019-04-27T23:44:07.000Z,279.15
2019-04-27T23:46:11.000Z,279.09
2019-04-27T23:47:34.000Z,279.09
2019-04-27T23:49:38.000Z,279.09
2019-04-27T23:51:02.000Z,279.15
2019-04-27T23:53:04.000Z,279.15
2019-04-27T23:54:27.000Z,279.15
2019-04-27T23:56:29.000Z,279.09
2019-04-27T23:57:54.000Z,279.09
2019-04-27T23:59:58.000Z,279.09
